createdAt,value
2023-01-29T00:00:29.715Z,99758.31
2023-01-29T00:02:59.224Z,99758.00
2023-01-29T00:05:28.742Z,99751.47
2023-01-29T00:07:58.350Z,99751.84
2023-01-29T00:10:27.750Z,99743.81
2023-01-29T00:12:56.761Z,99741.94
2023-01-29T00:15:25.804Z,99750.34
2023-01-29T00:17:56.177Z,99754.41
2023-01-29T00:20:25.238Z,99746.53
2023-01-29T00:22:54.438Z,99752.69
2023-01-29T00:25:23.588Z,99752.19
2023-01-29T00:27:53.237Z,99750.75
2023-01-29T00:30:22.933Z,99745.84
2023-01-29T00:32:54.200Z,99739.00
2023-01-29T00:35:24.826Z,99738.50
2023-01-29T00:37:53.941Z,99737.78
2023-01-29T00:40:24.059Z,99729.69
2023-01-29T00:43:10.978Z,99731.16
2023-01-29T00:45:40.958Z,99732.88
2023-01-29T00:48:09.937Z,99719.31
2023-01-29T00:50:40.314Z,99721.22
2023-01-29T00:53:09.282Z,99717.03
2023-01-29T00:55:38.333Z,99720.72
2023-01-29T00:58:07.345Z,99715.44
2023-01-29T01:00:36.410Z,99716.66
2023-01-29T01:03:07.639Z,99717.03
2023-01-29T01:05:37.188Z,99711.25
2023-01-29T01:08:28.902Z,99703.66
2023-01-29T01:11:01.942Z,99701.41
2023-01-29T01:13:32.581Z,99715.81
2023-01-29T01:16:02.039Z,99717.94
2023-01-29T01:18:32.376Z,99714.59
2023-01-29T01:21:01.365Z,99708.56
2023-01-29T01:23:32.113Z,99706.41
2023-01-29T01:26:01.464Z,99713.13
2023-01-29T01:28:30.846Z,99711.31
2023-01-29T01:31:08.974Z,99708.75
2023-01-29T01:33:38.706Z,99708.03
2023-01-29T01:36:10.097Z,99710.81
2023-01-29T01:38:44.818Z,99711.44
2023-01-29T01:41:14.790Z,99708.66
2023-01-29T01:43:51.376Z,99703.84
2023-01-29T01:46:20.858Z,99693.75
2023-01-29T01:48:54.827Z,99700.81
2023-01-29T01:51:25.967Z,99698.13
2023-01-29T01:53:59.768Z,99693.53
2023-01-29T01:56:40.777Z,99693.94
2023-01-29T01:59:14.522Z,99690.25
2023-01-29T02:01:50.209Z,99695.47
2023-01-29T02:04:40.567Z,99698.22
2023-01-29T02:07:29.691Z,99691.88
2023-01-29T02:10:07.657Z,99684.06
2023-01-29T02:12:38.519Z,99679.25
2023-01-29T02:15:08.754Z,99680.28
2023-01-29T02:17:38.957Z,99670.81
2023-01-29T02:20:18.717Z,99682.47
2023-01-29T02:23:11.806Z,99669.78
2023-01-29T02:26:10.895Z,99663.03
2023-01-29T02:28:50.432Z,99664.25
2023-01-29T02:31:27.218Z,99661.72
2023-01-29T02:34:08.788Z,99662.41
2023-01-29T02:36:45.848Z,99655.16
2023-01-29T02:39:21.599Z,99643.94
2023-01-29T02:42:00.124Z,99644.53
2023-01-29T02:44:38.801Z,99642.28
2023-01-29T02:47:17.025Z,99642.75
2023-01-29T02:49:51.948Z,99645.19
2023-01-29T02:52:24.763Z,99639.66
2023-01-29T02:55:03.212Z,99636.94
2023-01-29T02:57:36.429Z,99627.66
2023-01-29T03:00:12.419Z,99624.31
2023-01-29T03:02:50.224Z,99626.84
2023-01-29T03:05:26.735Z,99621.03
2023-01-29T03:08:01.827Z,99617.88
2023-01-29T03:10:41.031Z,99617.38
2023-01-29T03:13:16.126Z,99615.03
2023-01-29T03:16:01.647Z,99611.03
2023-01-29T03:18:48.929Z,99612.59
2023-01-29T03:21:38.862Z,99607.69
2023-01-29T03:24:29.937Z,99598.66
2023-01-29T03:27:20.355Z,99611.59
2023-01-29T03:30:09.457Z,99604.97
2023-01-29T03:33:02.309Z,99591.50
2023-01-29T03:35:39.697Z,99581.72
2023-01-29T03:38:10.143Z,99582.16
2023-01-29T03:40:47.419Z,99570.81
2023-01-29T03:43:32.372Z,99571.34
2023-01-29T03:46:09.355Z,99576.03
2023-01-29T03:48:43.164Z,99572.97
2023-01-29T03:51:22.023Z,99560.44
2023-01-29T03:53:55.340Z,99556.25
2023-01-29T03:56:37.028Z,99546.06
2023-01-29T03:59:16.683Z,99554.41
2023-01-29T04:02:08.804Z,99550.03
2023-01-29T04:04:41.908Z,99541.47
2023-01-29T04:07:14.501Z,99539.13
2023-01-29T04:09:48.066Z,99531.66
2023-01-29T04:12:23.381Z,99531.16
2023-01-29T04:14:53.310Z,99529.34
2023-01-29T04:17:33.078Z,99523.84
2023-01-29T04:20:15.643Z,99522.00
2023-01-29T04:22:48.138Z,99513.22
2023-01-29T04:25:26.771Z,99519.78
2023-01-29T04:28:04.561Z,99516.06
2023-01-29T04:30:45.130Z,99512.81
2023-01-29T04:33:28.067Z,99509.56
2023-01-29T04:36:10.089Z,99504.06
2023-01-29T04:38:53.091Z,99507.84
2023-01-29T04:41:26.749Z,99508.75
2023-01-29T04:44:03.701Z,99513.84
2023-01-29T04:46:41.587Z,99508.75
2023-01-29T04:49:19.985Z,99501.41
2023-01-29T04:51:54.342Z,99504.69
2023-01-29T04:54:32.714Z,99508.84
2023-01-29T04:57:10.866Z,99516.69
2023-01-29T04:59:44.172Z,99508.31
2023-01-29T05:02:14.547Z,99506.69
2023-01-29T05:04:46.541Z,99491.63
2023-01-29T05:07:19.158Z,99496.72
2023-01-29T05:09:49.264Z,99496.72
2023-01-29T05:12:19.645Z,99490.50
2023-01-29T05:14:50.829Z,99488.34
2023-01-29T05:17:21.847Z,99490.19
2023-01-29T05:19:50.868Z,99490.59
2023-01-29T05:22:22.969Z,99496.84
2023-01-29T05:24:52.141Z,99498.84
2023-01-29T05:27:43.929Z,99490.59
2023-01-29T05:30:13.691Z,99485.09
2023-01-29T05:32:42.745Z,99489.28
2023-01-29T05:35:11.804Z,99487.44
2023-01-29T05:37:42.352Z,99494.88
2023-01-29T05:40:12.211Z,99499.97
2023-01-29T05:42:42.177Z,99500.91
2023-01-29T05:45:11.941Z,99489.38
2023-01-29T05:47:40.948Z,99489.38
2023-01-29T05:50:10.942Z,99494.47
2023-01-29T05:52:41.781Z,99491.22
2023-01-29T05:55:11.979Z,99499.78
2023-01-29T05:57:42.274Z,99493.03
2023-01-29T06:00:13.339Z,99498.84
2023-01-29T06:02:42.405Z,99493.03
2023-01-29T06:05:11.538Z,99491.94
2023-01-29T06:07:45.628Z,99496.31
2023-01-29T06:10:16.900Z,99494.88
2023-01-29T06:12:46.107Z,99498.13
2023-01-29T06:15:15.951Z,99495.41
2023-01-29T06:17:45.137Z,99485.41
2023-01-29T06:20:14.889Z,99489.28
2023-01-29T06:22:45.649Z,99490.19
2023-01-29T06:25:14.678Z,99488.78
2023-01-29T06:27:43.700Z,99479.31
2023-01-29T06:30:13.940Z,99484.41
2023-01-29T06:32:43.273Z,99481.53
2023-01-29T06:35:12.216Z,99485.41
2023-01-29T06:37:41.330Z,99477.75
2023-01-29T06:40:12.931Z,99477.97
2023-01-29T06:42:42.173Z,99475.59
2023-01-29T06:45:12.329Z,99467.63
2023-01-29T06:47:41.282Z,99469.50
2023-01-29T06:50:11.623Z,99468.59
2023-01-29T06:52:40.700Z,99468.97
2023-01-29T06:55:12.269Z,99463.88
2023-01-29T06:57:41.577Z,99467.22
2023-01-29T07:00:11.767Z,99462.13
2023-01-29T07:02:40.767Z,99446.34
2023-01-29T07:05:10.073Z,99457.13
2023-01-29T07:07:39.036Z,99436.41
2023-01-29T07:10:09.345Z,99454.44
2023-01-29T07:12:39.830Z,99452.22
2023-01-29T07:15:09.905Z,99436.19
2023-01-29T07:17:39.027Z,99432.72
2023-01-29T07:20:09.934Z,99433.72
2023-01-29T07:22:39.134Z,99433.19
2023-01-29T07:25:09.728Z,99434.50
2023-01-29T07:27:40.059Z,99434.72
2023-01-29T07:30:10.501Z,99433.78
2023-01-29T07:32:39.590Z,99433.38
2023-01-29T07:35:09.335Z,99432.16
2023-01-29T07:37:38.521Z,99437.44
2023-01-29T07:40:11.452Z,99436.78
2023-01-29T07:42:44.159Z,99430.47
2023-01-29T07:45:13.822Z,99427.72
2023-01-29T07:47:42.927Z,99435.16
2023-01-29T07:50:12.897Z,99421.38
2023-01-29T07:52:42.003Z,99426.34
2023-01-29T07:55:11.497Z,99427.88
2023-01-29T07:57:43.033Z,99433.97
2023-01-29T08:00:13.619Z,99431.00
2023-01-29T08:02:43.185Z,99435.06
2023-01-29T08:05:12.274Z,99426.97
2023-01-29T08:07:41.327Z,99422.94
2023-01-29T08:10:11.674Z,99416.84
2023-01-29T08:12:43.386Z,99412.53
2023-01-29T08:15:13.027Z,99410.75
2023-01-29T08:17:56.182Z,99406.47
2023-01-29T08:20:27.046Z,99395.28
2023-01-29T08:23:01.495Z,99395.31
2023-01-29T08:25:30.695Z,99393.91
2023-01-29T08:28:02.387Z,99390.28
2023-01-29T08:30:34.545Z,99381.53
2023-01-29T08:33:05.430Z,99380.09
2023-01-29T08:36:02.490Z,99385.91
2023-01-29T08:38:40.380Z,99386.31
2023-01-29T08:41:11.074Z,99381.00
2023-01-29T08:43:43.728Z,99390.38
2023-01-29T08:46:12.791Z,99390.38
2023-01-29T08:48:42.096Z,99385.50
2023-01-29T08:51:11.187Z,99377.22
2023-01-29T08:53:40.175Z,99379.59
2023-01-29T08:56:10.893Z,99373.97
2023-01-29T08:58:40.034Z,99365.94
2023-01-29T09:01:12.329Z,99367.78
2023-01-29T09:03:43.952Z,99370.53
2023-01-29T09:06:14.405Z,99365.75
2023-01-29T09:08:48.126Z,99357.50
2023-01-29T09:11:17.274Z,99353.16
2023-01-29T09:13:46.974Z,99358.59
2023-01-29T09:16:25.879Z,99354.97
2023-01-29T09:18:57.039Z,99357.38
2023-01-29T09:21:26.603Z,99347.69
2023-01-29T09:23:55.750Z,99349.50
2023-01-29T09:26:25.187Z,99346.91
2023-01-29T09:28:54.321Z,99347.03
2023-01-29T09:31:27.303Z,99347.56
2023-01-29T09:33:57.774Z,99351.44
2023-01-29T09:36:30.861Z,99340.25
2023-01-29T09:39:00.944Z,99339.88
2023-01-29T09:41:45.463Z,99330.94
2023-01-29T09:44:25.833Z,99316.88
2023-01-29T09:47:00.741Z,99316.50
2023-01-29T09:49:34.353Z,99311.41
2023-01-29T09:52:08.944Z,99309.56
2023-01-29T09:54:50.960Z,99307.72
2023-01-29T09:57:27.155Z,99299.69
2023-01-29T09:59:56.859Z,99298.63
2023-01-29T10:02:52.783Z,99301.31
2023-01-29T10:05:35.867Z,99297.16
2023-01-29T10:08:33.151Z,99298.66
2023-01-29T10:11:08.864Z,99294.59
2023-01-29T10:13:45.884Z,99280.00
2023-01-29T10:16:29.787Z,99285.13
2023-01-29T10:19:16.541Z,99270.00
2023-01-29T10:22:01.662Z,99271.59
2023-01-29T10:24:41.102Z,99261.75
2023-01-29T10:27:16.697Z,99263.53
2023-01-29T10:29:48.312Z,99248.94
2023-01-29T10:32:19.965Z,99250.25
2023-01-29T10:34:57.708Z,99249.34
2023-01-29T10:37:38.831Z,99237.31
2023-01-29T10:40:23.395Z,99230.94
2023-01-29T10:42:59.821Z,99228.75
2023-01-29T10:45:36.720Z,99218.72
2023-01-29T10:48:38.238Z,99208.47
2023-01-29T10:51:21.898Z,99197.88
2023-01-29T10:54:09.280Z,99192.97
2023-01-29T10:56:54.600Z,99189.31
2023-01-29T10:59:48.055Z,99185.81
2023-01-29T11:02:19.828Z,99176.72
2023-01-29T11:04:49.395Z,99181.28
2023-01-29T11:07:29.038Z,99166.66
2023-01-29T11:10:05.296Z,99163.19
2023-01-29T11:12:36.838Z,99163.19
2023-01-29T11:15:16.126Z,99169.03
2023-01-29T11:18:11.193Z,99175.59
2023-01-29T11:20:45.761Z,99171.22
2023-01-29T11:23:28.614Z,99175.25
2023-01-29T11:26:05.054Z,99170.50
2023-01-29T11:28:44.690Z,99177.78
2023-01-29T11:31:41.344Z,99161.88
2023-01-29T11:34:22.173Z,99162.09
2023-01-29T11:37:00.393Z,99163.88
2023-01-29T11:39:32.306Z,99160.78
2023-01-29T11:42:03.910Z,99156.03
2023-01-29T11:44:37.154Z,99163.19
2023-01-29T11:47:18.692Z,99160.97
2023-01-29T11:49:50.472Z,99159.91
2023-01-29T11:52:22.977Z,99159.91
2023-01-29T11:54:57.014Z,99150.78
2023-01-29T11:57:32.344Z,99142.53
2023-01-29T12:00:08.612Z,99151.84
2023-01-29T12:02:40.624Z,99151.69
2023-01-29T12:05:18.543Z,99151.16
2023-01-29T12:07:50.479Z,99152.78
2023-01-29T12:10:39.180Z,99153.31
2023-01-29T12:13:23.491Z,99153.53
2023-01-29T12:16:09.613Z,99157.31
2023-01-29T12:18:44.779Z,99160.25
2023-01-29T12:21:19.074Z,99151.50
2023-01-29T12:23:55.372Z,99151.50
2023-01-29T12:26:32.821Z,99142.56
2023-01-29T12:29:24.535Z,99142.19
2023-01-29T12:32:01.137Z,99143.47
2023-01-29T12:34:42.300Z,99142.38
2023-01-29T12:37:19.328Z,99146.00
2023-01-29T12:39:51.375Z,99142.38
2023-01-29T12:42:24.687Z,99137.06
2023-01-29T12:44:58.664Z,99141.25
2023-01-29T12:47:33.635Z,99133.56
2023-01-29T12:50:08.285Z,99137.22
2023-01-29T12:52:46.714Z,99138.31
2023-01-29T12:55:21.888Z,99137.22
2023-01-29T12:57:57.600Z,99137.97
2023-01-29T13:00:30.705Z,99124.81
2023-01-29T13:03:05.962Z,99126.63
2023-01-29T13:05:42.688Z,99131.72
2023-01-29T13:08:16.405Z,99131.72
2023-01-29T13:10:49.757Z,99130.44
2023-01-29T13:13:28.991Z,99140.28
2023-01-29T13:16:01.308Z,99135.00
2023-01-29T13:18:44.487Z,99131.53
2023-01-29T13:21:16.584Z,99126.97
2023-01-29T13:23:48.434Z,99125.69
2023-01-29T13:26:20.102Z,99124.03
2023-01-29T13:28:52.627Z,99134.25
2023-01-29T13:31:33.873Z,99119.28
2023-01-29T13:34:14.074Z,99113.09
2023-01-29T13:36:45.500Z,99111.97
2023-01-29T13:39:25.772Z,99105.97
2023-01-29T13:41:56.438Z,99104.31
2023-01-29T13:44:29.590Z,99108.13
2023-01-29T13:47:01.151Z,99105.41
2023-01-29T13:49:36.069Z,99104.50
2023-01-29T13:52:29.438Z,99103.59
2023-01-29T13:55:00.916Z,99100.31
2023-01-29T13:57:47.776Z,99097.94
2023-01-29T14:00:59.268Z,99097.75
2023-01-29T14:04:10.389Z,99094.66
2023-01-29T14:06:57.764Z,99099.56
2023-01-29T14:10:05.160Z,99091.19
2023-01-29T14:12:44.344Z,99093.91
2023-01-29T14:15:25.863Z,99102.69
2023-01-29T14:18:01.503Z,99099.94
2023-01-29T14:20:45.501Z,99101.22
2023-01-29T14:23:25.388Z,99092.66
2023-01-29T14:25:54.503Z,99085.16
2023-01-29T14:28:27.873Z,99084.22
2023-01-29T14:30:57.339Z,99081.66
2023-01-29T14:33:36.393Z,99079.50
2023-01-29T14:36:10.654Z,99070.75
2023-01-29T14:38:41.458Z,99074.00
2023-01-29T14:41:27.100Z,99073.66
2023-01-29T14:44:29.214Z,99065.28
2023-01-29T14:46:58.273Z,99074.75
2023-01-29T14:49:56.082Z,99071.13
2023-01-29T14:52:34.418Z,99072.94
2023-01-29T14:55:08.612Z,99075.47
2023-01-29T14:57:38.944Z,99075.66
2023-01-29T15:00:16.687Z,99070.38
2023-01-29T15:02:46.872Z,99067.63
2023-01-29T15:05:21.610Z,99066.38
2023-01-29T15:07:56.812Z,99063.22
2023-01-29T15:10:30.207Z,99069.25
2023-01-29T15:13:04.547Z,99070.72
2023-01-29T15:15:39.103Z,99074.72
2023-01-29T15:18:13.686Z,99072.91
2023-01-29T15:20:44.728Z,99073.81
2023-01-29T15:23:30.981Z,99071.47
2023-01-29T15:26:03.438Z,99070.00
2023-01-29T15:28:34.421Z,99064.50
2023-01-29T15:31:06.809Z,99073.44
2023-01-29T15:33:38.773Z,99074.72
2023-01-29T15:36:09.190Z,99070.53
2023-01-29T15:38:39.711Z,99066.13
2023-01-29T15:41:19.759Z,99063.78
2023-01-29T15:43:50.712Z,99060.50
2023-01-29T15:46:26.196Z,99073.81
2023-01-29T15:48:58.012Z,99072.16
2023-01-29T15:51:28.919Z,99067.78
2023-01-29T15:54:01.485Z,99071.81
2023-01-29T15:56:34.773Z,99066.31
2023-01-29T15:59:09.834Z,99065.94
2023-01-29T16:01:39.306Z,99055.34
2023-01-29T16:04:14.855Z,99054.81
2023-01-29T16:06:45.442Z,99060.63
2023-01-29T16:09:21.024Z,99052.41
2023-01-29T16:11:51.555Z,99052.06
2023-01-29T16:14:25.818Z,99050.19
2023-01-29T16:16:55.481Z,99055.66
2023-01-29T16:19:26.590Z,99047.66
2023-01-29T16:22:01.067Z,99045.41
2023-01-29T16:24:36.043Z,99046.88
2023-01-29T16:27:15.039Z,99043.44
2023-01-29T16:29:45.171Z,99047.97
2023-01-29T16:32:15.798Z,99048.31
2023-01-29T16:34:48.591Z,99043.97
2023-01-29T16:37:23.983Z,99036.81
2023-01-29T16:39:54.435Z,99026.97
2023-01-29T16:42:36.001Z,99035.19
2023-01-29T16:45:06.845Z,99033.34
2023-01-29T16:47:38.509Z,99038.44
2023-01-29T16:50:28.384Z,99039.91
2023-01-29T16:52:59.430Z,99041.34
2023-01-29T16:55:36.965Z,99037.69
2023-01-29T16:58:13.739Z,99034.94
2023-01-29T17:00:46.954Z,99035.88
2023-01-29T17:03:18.955Z,99027.50
2023-01-29T17:05:51.125Z,99028.94
2023-01-29T17:08:26.227Z,99031.47
2023-01-29T17:10:57.272Z,99028.94
2023-01-29T17:13:31.211Z,99028.59
2023-01-29T17:16:03.079Z,99028.94
2023-01-29T17:18:32.798Z,99020.59
2023-01-29T17:21:02.307Z,99016.41
2023-01-29T17:23:31.380Z,99011.06
2023-01-29T17:26:02.962Z,99010.38
2023-01-29T17:28:32.435Z,99014.75
2023-01-29T17:31:06.686Z,99002.00
2023-01-29T17:33:37.792Z,99012.19
2023-01-29T17:36:07.928Z,99009.81
2023-01-29T17:38:37.194Z,99001.25
2023-01-29T17:41:10.815Z,99005.63
2023-01-29T17:43:40.380Z,99002.91
2023-01-29T17:46:13.466Z,98996.53
2023-01-29T17:48:43.020Z,99000.19
2023-01-29T17:51:15.064Z,99003.09
2023-01-29T17:53:46.666Z,98992.91
2023-01-29T17:56:27.637Z,98995.84
2023-01-29T17:58:56.921Z,98998.56
2023-01-29T18:01:26.418Z,98991.13
2023-01-29T18:03:55.622Z,98989.91
2023-01-29T18:06:29.431Z,98986.78
2023-01-29T18:08:59.249Z,98988.94
2023-01-29T18:11:29.930Z,98990.06
2023-01-29T18:13:59.684Z,98989.72
2023-01-29T18:16:40.988Z,98984.78
2023-01-29T18:19:15.320Z,98979.50
2023-01-29T18:21:44.771Z,98974.00
2023-01-29T18:24:14.260Z,98974.94
2023-01-29T18:26:45.100Z,98972.38
2023-01-29T18:29:14.890Z,98963.81
2023-01-29T18:31:44.399Z,98971.31
2023-01-29T18:34:13.680Z,98974.78
2023-01-29T18:36:46.918Z,98966.00
2023-01-29T18:39:16.547Z,98971.31
2023-01-29T18:41:47.525Z,98974.78
2023-01-29T18:44:16.670Z,98972.97
2023-01-29T18:46:46.333Z,98976.41
2023-01-29T18:49:15.375Z,98968.19
2023-01-29T18:51:44.719Z,98970.94
2023-01-29T18:54:14.121Z,98965.84
2023-01-29T18:57:13.117Z,98969.31
2023-01-29T18:59:33.596Z,98964.94
2023-01-29T19:02:02.981Z,98963.47
2023-01-29T19:04:32.265Z,98962.72
2023-01-29T19:07:01.377Z,98961.28
2023-01-29T19:09:30.529Z,98953.25
2023-01-29T19:11:59.993Z,98953.78
2023-01-29T19:14:29.283Z,98953.09
2023-01-29T19:17:01.662Z,98951.25
2023-01-29T19:19:30.952Z,98946.13
2023-01-29T19:22:00.592Z,98951.25
2023-01-29T19:24:29.906Z,98946.88
2023-01-29T19:26:58.974Z,98951.06
2023-01-29T19:29:27.987Z,98947.25
2023-01-29T19:31:57.440Z,98943.03
2023-01-29T19:34:28.189Z,98940.88
2023-01-29T19:36:57.304Z,98937.56
2023-01-29T19:39:29.880Z,98936.84
2023-01-29T19:41:59.820Z,98932.66
2023-01-29T19:44:29.453Z,98936.84
2023-01-29T19:46:59.768Z,98929.91
2023-01-29T19:49:35.937Z,98928.09
2023-01-29T19:52:07.664Z,98914.97
2023-01-29T19:54:38.336Z,98920.81
2023-01-29T19:57:09.221Z,98922.81
2023-01-29T19:59:38.322Z,98921.88
2023-01-29T20:02:08.750Z,98917.53
2023-01-29T20:04:39.437Z,98928.28
2023-01-29T20:07:09.473Z,98921.34
2023-01-29T20:09:38.432Z,98925.91
2023-01-29T20:12:10.884Z,98917.53
2023-01-29T20:14:47.798Z,98908.97
2023-01-29T20:17:19.803Z,98912.59
2023-01-29T20:19:50.799Z,98905.88
2023-01-29T20:22:20.473Z,98904.94
2023-01-29T20:24:52.281Z,98902.22
2023-01-29T20:27:21.340Z,98904.03
2023-01-29T20:29:52.774Z,98902.94
2023-01-29T20:32:25.778Z,98899.66
2023-01-29T20:34:59.189Z,98899.66
2023-01-29T20:37:28.526Z,98889.06
2023-01-29T20:39:57.565Z,98898.38
2023-01-29T20:42:26.700Z,98890.88
2023-01-29T20:44:55.730Z,98888.69
2023-01-29T20:47:24.709Z,98879.59
2023-01-29T20:49:53.670Z,98881.59
2023-01-29T20:52:24.026Z,98865.38
2023-01-29T20:54:54.022Z,98855.56
2023-01-29T20:57:24.463Z,98853.00
2023-01-29T20:59:56.232Z,98854.63
2023-01-29T21:02:31.453Z,98850.97
2023-01-29T21:05:00.555Z,98845.72
2023-01-29T21:07:32.187Z,98843.53
2023-01-29T21:10:01.208Z,98847.88
2023-01-29T21:12:32.499Z,98865.19
2023-01-29T21:15:01.560Z,98862.84
2023-01-29T21:17:32.870Z,98854.97
2023-01-29T21:20:04.141Z,98859.16
2023-01-29T21:22:34.591Z,98862.09
2023-01-29T21:25:03.699Z,98858.81
2023-01-29T21:27:32.783Z,98860.44
2023-01-29T21:30:01.737Z,98864.66
2023-01-29T21:32:32.975Z,98862.09
2023-01-29T21:35:02.008Z,98857.72
2023-01-29T21:37:37.057Z,98843.69
2023-01-29T21:40:07.392Z,98843.53
2023-01-29T21:42:53.598Z,98832.94
2023-01-29T21:45:22.621Z,98836.56
2023-01-29T21:47:51.682Z,98833.66
2023-01-29T21:50:20.858Z,98836.19
2023-01-29T21:52:51.246Z,98837.69
2023-01-29T21:55:20.397Z,98839.69
2023-01-29T21:57:49.498Z,98839.69
2023-01-29T22:00:50.827Z,98842.25
2023-01-29T22:03:19.868Z,98838.75
2023-01-29T22:06:00.998Z,98837.13
2023-01-29T22:08:32.107Z,98839.88
2023-01-29T22:11:07.173Z,98838.03
2023-01-29T22:13:36.633Z,98838.03
2023-01-29T22:16:06.150Z,98836.19
2023-01-29T22:18:36.814Z,98832.94
2023-01-29T22:21:07.741Z,98835.50
2023-01-29T22:24:00.411Z,98824.56
2023-01-29T22:26:31.073Z,98825.47
2023-01-29T22:29:00.284Z,98827.84
2023-01-29T22:31:29.524Z,98809.97
2023-01-29T22:33:58.900Z,98805.59
2023-01-29T22:36:27.949Z,98810.34
2023-01-29T22:38:58.505Z,98801.97
2023-01-29T22:41:27.605Z,98796.50
2023-01-29T22:43:56.732Z,98787.94
2023-01-29T22:46:25.761Z,98789.94
2023-01-29T22:48:56.725Z,98792.66
2023-01-29T22:51:25.786Z,98783.00
2023-01-29T22:53:58.980Z,98778.63
2023-01-29T22:56:31.301Z,98776.81
2023-01-29T22:59:01.979Z,98771.88
2023-01-29T23:01:32.906Z,98775.16
2023-01-29T23:04:02.006Z,98773.34
2023-01-29T23:06:33.183Z,98773.16
2023-01-29T23:09:02.164Z,98769.53
2023-01-29T23:11:33.300Z,98769.91
2023-01-29T23:14:02.320Z,98760.22
2023-01-29T23:16:31.357Z,98756.94
2023-01-29T23:19:04.535Z,98758.25
2023-01-29T23:21:33.544Z,98758.78
2023-01-29T23:24:02.518Z,98755.69
2023-01-29T23:26:52.650Z,98753.16
2023-01-29T23:29:22.088Z,98757.34
2023-01-29T23:31:51.140Z,98752.41
2023-01-29T23:34:20.593Z,98750.94
2023-01-29T23:36:49.859Z,98745.84
2023-01-29T23:39:19.104Z,98747.47
2023-01-29T23:41:49.525Z,98740.72
2023-01-29T23:44:18.680Z,98738.91
2023-01-29T23:46:48.276Z,98737.09
2023-01-29T23:49:17.322Z,98721.81
2023-01-29T23:51:46.900Z,98718.16
2023-01-29T23:54:16.549Z,98726.91
2023-01-29T23:56:46.303Z,98714.91
2023-01-29T23:59:17.159Z,98719.78
